Pagina principale
METAR-TAF:

METAR-TAF

Aeroporti :

Aeroporto Internazionale José Martí

L'Avana, Cuba

latitudine: 22-59N, longitudine: 082-24W, altezza: 59 m

Osservazione

Il bollettino è stato emesso 36 minuti fa, alle 01:55 UTC
Vento 1 kt da est
Temperature 24°C
Umidità 100%
Pressione 1015 hPa
Visibilità: 9000 m
Nubi sparse ad un'altezza di 4000 ft

METAR: MUHA 210155Z 10001KT 9000 SCT040 24/24 Q1015

Ora: 22:31 (02:31 UTC)

Previsione

Il bollettino è stato emesso 3 ore e 31 minuti fa, alle 23:00 UTC
Previsione valida dal 21 alle 00 UTC al 21 alle 24 UTC
Vento 5 kt da sud
Visibilità: 9000 m
Nubi sparse ad un'altezza di 3000 ft

TAF: MUHA 202300Z 2100/2124 18005KT 9000 SCT030

Osservazioni e previsioni meteorologiche di più di 4000 aeroporti (messaggi METAR e TAF).

Le stazioni disponibili sono rappresentate dai dischi gialli e rossi sulla carta.

Puntare il mouse per vedere il nome della stazione.

Clicca sopra per visualizzare le osservazioni e previsioni meteorologiche.

Per cambiare la mappa : fare clic sui pulsanti verdi con una croce nera per ingrandire, il pulsante verde con un trattino per diminuire, o sulla freccia verde per le mappe adiacenti.


METAR-TAF: